createdAt,value
2023-04-27T00:00:15.077Z,15.30
2023-04-27T00:02:45.014Z,15.30
2023-04-27T00:05:15.426Z,15.30
2023-04-27T00:07:45.054Z,15.30
2023-04-27T00:10:15.513Z,15.50
2023-04-27T00:12:45.357Z,15.50
2023-04-27T00:15:15.101Z,15.70
2023-04-27T00:17:46.643Z,15.80
2023-04-27T00:20:16.601Z,15.80
2023-04-27T00:22:47.893Z,16.00
2023-04-27T00:25:17.691Z,16.10
2023-04-27T00:27:47.563Z,16.20
2023-04-27T00:30:17.612Z,16.30
2023-04-27T00:32:47.391Z,16.40
2023-04-27T00:35:16.796Z,16.50
2023-04-27T00:37:46.565Z,16.50
2023-04-27T00:40:15.987Z,16.70
2023-04-27T00:42:45.772Z,16.80
2023-04-27T00:45:16.401Z,16.90
2023-04-27T00:47:46.920Z,17.00
2023-04-27T00:50:16.647Z,17.10
2023-04-27T00:52:46.028Z,17.20
2023-04-27T00:55:15.409Z,17.30
2023-04-27T00:57:45.573Z,17.30
2023-04-27T01:00:16.451Z,17.30
2023-04-27T01:02:47.019Z,17.40
2023-04-27T01:05:17.200Z,17.50
2023-04-27T01:07:47.101Z,17.50
2023-04-27T01:10:16.843Z,17.50
2023-04-27T01:12:46.199Z,17.70
2023-04-27T01:15:16.030Z,17.70
2023-04-27T01:17:45.901Z,17.80
2023-04-27T01:20:16.931Z,17.90
2023-04-27T01:22:46.709Z,17.90
2023-04-27T01:25:16.641Z,17.90
2023-04-27T01:27:46.028Z,18.00
2023-04-27T01:30:15.506Z,18.10
2023-04-27T01:32:44.895Z,18.20
2023-04-27T01:35:14.697Z,18.30
2023-04-27T01:37:44.096Z,18.30
2023-04-27T01:40:13.704Z,18.30
2023-04-27T01:42:44.726Z,18.40
2023-04-27T01:45:14.500Z,18.50
2023-04-27T01:47:44.252Z,18.40
2023-04-27T01:50:14.655Z,18.30
2023-04-27T01:52:44.787Z,18.30
2023-04-27T01:55:14.605Z,18.50
2023-04-27T01:57:44.610Z,18.60
2023-04-27T02:00:14.378Z,18.60
2023-04-27T02:02:43.856Z,18.70
2023-04-27T02:05:13.293Z,18.80
2023-04-27T02:07:43.690Z,18.90
2023-04-27T02:10:14.979Z,18.90
2023-04-27T02:12:44.309Z,19.00
2023-04-27T02:15:14.104Z,18.90
2023-04-27T02:17:44.564Z,19.00
2023-04-27T02:20:14.125Z,19.10
2023-04-27T02:22:45.767Z,19.30
2023-04-27T02:25:15.661Z,19.30
2023-04-27T02:27:47.433Z,19.40
2023-04-27T02:30:17.917Z,19.50
2023-04-27T02:32:48.432Z,19.60
2023-04-27T02:35:18.253Z,19.70
2023-04-27T02:37:48.043Z,19.70
2023-04-27T02:40:17.410Z,19.80
2023-04-27T02:42:47.292Z,19.80
2023-04-27T02:45:16.754Z,19.80
2023-04-27T02:47:46.134Z,19.80
2023-04-27T02:50:15.931Z,19.80
2023-04-27T02:52:45.266Z,19.90
2023-04-27T02:55:16.469Z,19.90
2023-04-27T02:57:46.503Z,19.80
2023-04-27T03:00:16.111Z,19.90
2023-04-27T03:02:45.705Z,20.00
2023-04-27T03:05:15.596Z,20.00
2023-04-27T03:07:45.053Z,20.00
2023-04-27T03:10:14.786Z,20.00
2023-04-27T03:12:44.258Z,20.10
2023-04-27T03:15:14.837Z,20.00
2023-04-27T03:17:44.260Z,20.20
2023-04-27T03:20:14.022Z,20.20
2023-04-27T03:22:43.855Z,20.30
2023-04-27T03:25:13.433Z,20.30
2023-04-27T03:27:44.114Z,20.40
2023-04-27T03:30:14.186Z,20.50
2023-04-27T03:32:45.032Z,20.50
2023-04-27T03:35:18.043Z,20.50
2023-04-27T03:37:48.162Z,20.50
2023-04-27T03:40:18.005Z,20.50
2023-04-27T03:42:48.777Z,20.60
2023-04-27T03:45:21.175Z,20.70
2023-04-27T03:47:51.679Z,20.70
2023-04-27T03:50:22.458Z,20.80
2023-04-27T03:52:52.309Z,20.80
2023-04-27T03:55:23.084Z,20.80
2023-04-27T03:57:53.213Z,20.80
2023-04-27T04:00:23.059Z,20.80
2023-04-27T04:02:53.896Z,20.70
2023-04-27T04:05:23.876Z,20.70
2023-04-27T04:07:53.816Z,20.70
2023-04-27T04:10:23.586Z,20.70
2023-04-27T04:12:53.855Z,20.80
2023-04-27T04:15:23.301Z,20.80
2023-04-27T04:17:53.321Z,20.70
2023-04-27T04:20:23.173Z,20.40
2023-04-27T04:22:52.923Z,20.40
2023-04-27T04:25:22.861Z,20.40
2023-04-27T04:27:53.027Z,20.40
2023-04-27T04:30:22.452Z,20.50
2023-04-27T04:32:52.397Z,20.40
2023-04-27T04:35:22.048Z,20.30
2023-04-27T04:37:51.950Z,20.30
2023-04-27T04:40:21.426Z,20.40
2023-04-27T04:42:51.183Z,20.70
2023-04-27T04:45:21.004Z,20.50
2023-04-27T04:47:51.448Z,20.50
2023-04-27T04:50:20.890Z,20.70
2023-04-27T04:52:50.254Z,20.70
2023-04-27T04:55:20.044Z,20.70
2023-04-27T04:57:49.392Z,20.80
2023-04-27T05:00:18.790Z,20.80
2023-04-27T05:02:48.718Z,20.80
2023-04-27T05:05:18.238Z,20.80
2023-04-27T05:07:47.593Z,21.00
2023-04-27T05:10:16.961Z,21.00
2023-04-27T05:12:46.346Z,21.00
2023-04-27T05:15:15.736Z,21.00
2023-04-27T05:17:45.648Z,20.90
2023-04-27T05:20:15.980Z,20.70
2023-04-27T05:22:46.350Z,20.50
2023-04-27T05:25:15.760Z,20.30
2023-04-27T05:27:45.086Z,20.20
2023-04-27T05:30:15.326Z,20.30
2023-04-27T05:32:44.656Z,20.40
2023-04-27T05:35:14.436Z,20.60
2023-04-27T05:37:43.796Z,20.70
2023-04-27T05:40:14.473Z,20.50
2023-04-27T05:42:43.862Z,20.50
2023-04-27T05:45:13.613Z,20.50
2023-04-27T05:47:44.044Z,20.50
2023-04-27T05:50:13.679Z,20.60
2023-04-27T05:52:43.955Z,20.50
2023-04-27T05:55:13.361Z,20.50
2023-04-27T05:57:42.990Z,20.50
2023-04-27T06:00:13.295Z,20.30
2023-04-27T06:02:42.953Z,20.20
2023-04-27T06:05:12.965Z,20.00
2023-04-27T06:07:45.637Z,19.70
2023-04-27T06:10:15.719Z,19.70
2023-04-27T06:12:46.383Z,19.70
2023-04-27T06:15:15.922Z,19.60
2023-04-27T06:17:48.765Z,19.50
2023-04-27T06:20:18.624Z,19.40
2023-04-27T06:22:48.913Z,19.30
2023-04-27T06:25:18.671Z,19.30
2023-04-27T06:27:49.015Z,19.20
2023-04-27T06:30:19.174Z,19.10
2023-04-27T06:32:48.556Z,19.00
2023-04-27T06:35:18.441Z,19.00
2023-04-27T06:37:50.200Z,19.00
2023-04-27T06:40:19.547Z,19.00
2023-04-27T06:42:49.359Z,19.00
2023-04-27T06:45:18.736Z,19.00
2023-04-27T06:47:48.518Z,19.00
2023-04-27T06:50:19.095Z,18.90
2023-04-27T06:52:49.533Z,18.90
2023-04-27T06:55:19.321Z,18.80
2023-04-27T06:57:49.147Z,18.80
2023-04-27T07:00:19.041Z,18.70
2023-04-27T07:02:48.995Z,18.70
2023-04-27T07:05:18.379Z,18.60
2023-04-27T07:07:48.523Z,18.60
2023-04-27T07:10:18.549Z,18.40
2023-04-27T07:12:48.776Z,18.40
2023-04-27T07:15:18.568Z,18.30
2023-04-27T07:17:48.527Z,18.20
2023-04-27T07:20:18.948Z,18.20
2023-04-27T07:22:48.404Z,18.10
2023-04-27T07:25:18.288Z,18.00
2023-04-27T07:27:48.848Z,17.90
2023-04-27T07:30:19.457Z,17.80
2023-04-27T07:32:50.165Z,17.80
2023-04-27T07:35:19.551Z,17.70
2023-04-27T07:37:49.415Z,17.60
2023-04-27T07:40:19.299Z,17.50
2023-04-27T07:42:48.815Z,17.40
2023-04-27T07:45:19.626Z,17.40
2023-04-27T07:47:49.388Z,17.40
2023-04-27T07:50:21.824Z,17.30
2023-04-27T07:52:51.710Z,17.30
2023-04-27T07:55:21.566Z,17.20
2023-04-27T07:57:52.345Z,17.20
2023-04-27T08:00:22.634Z,17.00
2023-04-27T08:02:53.155Z,17.00
2023-04-27T08:05:23.627Z,17.00
2023-04-27T08:07:55.192Z,16.90
2023-04-27T08:10:25.618Z,16.90
2023-04-27T08:12:55.402Z,16.90
2023-04-27T08:15:25.221Z,16.80
2023-04-27T08:17:54.816Z,16.80
2023-04-27T08:20:24.260Z,16.70
2023-04-27T08:22:54.277Z,16.60
2023-04-27T08:25:24.757Z,16.60
2023-04-27T08:27:56.128Z,16.40
2023-04-27T08:30:25.985Z,16.40
2023-04-27T08:32:57.664Z,16.40
2023-04-27T08:35:27.481Z,16.40
2023-04-27T08:37:57.293Z,16.30
2023-04-27T08:40:27.113Z,16.30
2023-04-27T08:43:01.872Z,16.30
2023-04-27T08:45:31.729Z,16.20
2023-04-27T08:48:01.429Z,16.10
2023-04-27T08:50:31.882Z,16.00
2023-04-27T08:53:01.578Z,16.00
2023-04-27T08:55:31.351Z,15.90
2023-04-27T08:58:03.271Z,15.90
2023-04-27T09:00:42.021Z,15.80
2023-04-27T09:03:28.226Z,15.80
2023-04-27T09:06:05.383Z,15.70
2023-04-27T09:08:45.506Z,15.60
2023-04-27T09:11:16.536Z,15.50
2023-04-27T09:13:48.098Z,15.40
2023-04-27T09:16:17.835Z,15.40
2023-04-27T09:18:47.842Z,15.30
2023-04-27T09:21:37.552Z,15.30
2023-04-27T09:24:15.015Z,15.30
2023-04-27T09:26:51.281Z,15.40
2023-04-27T09:29:21.084Z,15.40
2023-04-27T09:31:51.550Z,15.40
2023-04-27T09:34:21.342Z,15.50
2023-04-27T09:36:51.123Z,15.40
2023-04-27T09:39:21.761Z,15.40
2023-04-27T09:41:51.373Z,15.40
